createdAt,value
2023-01-29T00:02:34.762Z,101156.53
2023-01-29T00:05:36.767Z,101159.22
2023-01-29T00:08:38.694Z,101160.06
2023-01-29T00:11:40.626Z,101153.91
2023-01-29T00:14:42.682Z,101166.16
2023-01-29T00:17:44.927Z,101169.69
2023-01-29T00:20:46.921Z,101167.94
2023-01-29T00:23:48.922Z,101180.97
2023-01-29T00:26:50.819Z,101177.50
2023-01-29T00:30:09.701Z,101171.44
2023-01-29T00:33:13.477Z,101186.94
2023-01-29T00:36:16.423Z,101183.50
2023-01-29T00:39:31.394Z,101173.91
2023-01-29T00:42:57.092Z,101185.28
2023-01-29T00:45:59.087Z,101197.78
2023-01-29T00:49:01.018Z,101192.13
2023-01-29T00:52:21.361Z,101191.78
2023-01-29T00:55:23.289Z,101198.88
2023-01-29T00:58:34.130Z,101200.72
2023-01-29T01:01:54.924Z,101198.09
2023-01-29T01:04:56.885Z,101196.34
2023-01-29T01:07:58.815Z,101198.12
2023-01-29T01:11:07.134Z,101197.34
2023-01-29T01:14:09.503Z,101193.91
2023-01-29T01:17:11.339Z,101197.03
2023-01-29T01:20:13.279Z,101194.69
2023-01-29T01:23:15.261Z,101197.31
2023-01-29T01:26:17.193Z,101199.03
2023-01-29T01:29:19.125Z,101205.78
2023-01-29T01:32:21.071Z,101205.81
2023-01-29T01:35:22.981Z,101210.50
2023-01-29T01:38:25.111Z,101214.19
2023-01-29T01:41:26.997Z,101214.47
2023-01-29T01:44:47.715Z,101206.78
2023-01-29T01:47:51.864Z,101216.56
2023-01-29T01:51:03.333Z,101216.41
2023-01-29T01:54:12.710Z,101229.16
2023-01-29T01:57:18.548Z,101223.94
2023-01-29T02:00:20.737Z,101223.41
2023-01-29T02:03:41.374Z,101220.53
2023-01-29T02:07:02.220Z,101217.06
2023-01-29T02:10:11.601Z,101219.59
2023-01-29T02:13:16.360Z,101224.38
2023-01-29T02:16:18.182Z,101222.56
2023-01-29T02:19:23.566Z,101229.16
2023-01-29T02:22:44.363Z,101228.09
2023-01-29T02:26:05.379Z,101229.38
2023-01-29T02:29:22.804Z,101235.12
2023-01-29T02:32:31.694Z,101239.91
2023-01-29T02:35:52.566Z,101245.38
2023-01-29T02:38:55.248Z,101243.13
2023-01-29T02:42:02.134Z,101237.59
2023-01-29T02:45:03.955Z,101237.41
2023-01-29T02:48:06.047Z,101242.84
2023-01-29T02:51:11.228Z,101251.56
2023-01-29T02:54:22.443Z,101249.25
2023-01-29T02:57:25.675Z,101253.50
2023-01-29T03:00:28.489Z,101256.31
2023-01-29T03:03:39.410Z,101262.59
2023-01-29T03:07:04.746Z,101257.25
2023-01-29T03:10:12.207Z,101264.00
2023-01-29T03:13:22.192Z,101264.75
2023-01-29T03:16:34.585Z,101262.50
2023-01-29T03:19:40.379Z,101262.34
2023-01-29T03:22:42.472Z,101260.81
2023-01-29T03:26:03.021Z,101269.62
2023-01-29T03:29:23.576Z,101261.66
2023-01-29T03:32:26.675Z,101270.63
2023-01-29T03:35:48.462Z,101281.72
2023-01-29T03:38:50.573Z,101277.37
2023-01-29T03:42:12.686Z,101273.16
2023-01-29T03:45:23.677Z,101277.34
2023-01-29T03:48:29.407Z,101282.69
2023-01-29T03:51:34.578Z,101290.72
2023-01-29T03:54:42.297Z,101283.50
2023-01-29T03:58:07.667Z,101276.72
2023-01-29T04:01:09.550Z,101277.91
2023-01-29T04:04:15.881Z,101280.19
2023-01-29T04:07:18.688Z,101276.72
2023-01-29T04:10:21.990Z,101272.53
2023-01-29T04:13:23.827Z,101275.09
2023-01-29T04:16:29.685Z,101267.50
2023-01-29T04:19:31.663Z,101277.53
2023-01-29T04:22:34.780Z,101286.09
2023-01-29T04:25:41.286Z,101275.00
2023-01-29T04:28:43.073Z,101271.09
2023-01-29T04:31:47.731Z,101269.88
2023-01-29T04:34:55.884Z,101265.69
2023-01-29T04:37:57.736Z,101265.69
2023-01-29T04:41:04.249Z,101259.75
2023-01-29T04:44:06.284Z,101269.34
2023-01-29T04:47:23.670Z,101277.91
2023-01-29T04:50:29.363Z,101276.31
2023-01-29T04:53:40.372Z,101272.91
2023-01-29T04:56:45.144Z,101273.69
2023-01-29T04:59:47.883Z,101272.91
2023-01-29T05:02:50.116Z,101288.28
2023-01-29T05:05:52.203Z,101281.88
2023-01-29T05:08:54.318Z,101277.00
2023-01-29T05:11:56.214Z,101275.97
2023-01-29T05:14:58.521Z,101269.06
2023-01-29T05:18:03.243Z,101279.50
2023-01-29T05:21:05.561Z,101286.41
2023-01-29T05:24:09.141Z,101282.28
2023-01-29T05:27:35.336Z,101271.75
2023-01-29T05:30:38.723Z,101268.84
2023-01-29T05:33:40.723Z,101271.81
2023-01-29T05:36:42.648Z,101274.41
2023-01-29T05:39:44.548Z,101277.00
2023-01-29T05:42:46.556Z,101261.59
2023-01-29T05:45:58.199Z,101262.50
2023-01-29T05:49:00.116Z,101268.56
2023-01-29T05:52:01.980Z,101259.78
2023-01-29T05:55:03.960Z,101268.56
2023-01-29T05:58:06.248Z,101268.56
2023-01-29T06:01:18.134Z,101275.50
2023-01-29T06:04:20.133Z,101276.38
2023-01-29T06:07:22.095Z,101277.13
2023-01-29T06:10:24.183Z,101291.66
2023-01-29T06:13:26.126Z,101283.28
2023-01-29T06:16:28.146Z,101296.06
2023-01-29T06:19:30.259Z,101306.47
2023-01-29T06:22:33.062Z,101309.59
2023-01-29T06:25:34.962Z,101321.84
2023-01-29T06:28:36.909Z,101319.94
2023-01-29T06:31:39.837Z,101324.53
2023-01-29T06:34:41.929Z,101327.28
2023-01-29T06:37:44.396Z,101333.84
2023-01-29T06:40:46.243Z,101341.84
2023-01-29T06:43:48.268Z,101345.09
2023-01-29T06:46:50.419Z,101351.50
2023-01-29T06:49:52.343Z,101341.06
2023-01-29T06:52:54.133Z,101344.84
2023-01-29T06:55:55.951Z,101356.13
2023-01-29T06:58:58.002Z,101358.09
2023-01-29T07:01:59.951Z,101349.91
2023-01-29T07:05:01.972Z,101345.44
2023-01-29T07:08:04.146Z,101340.50
2023-01-29T07:11:06.644Z,101352.81
2023-01-29T07:14:08.608Z,101344.66
2023-01-29T07:17:10.457Z,101351.72
2023-01-29T07:20:12.419Z,101349.38
2023-01-29T07:23:14.629Z,101351.81
2023-01-29T07:26:16.612Z,101338.81
2023-01-29T07:29:18.590Z,101337.47
2023-01-29T07:32:20.593Z,101333.56
2023-01-29T07:35:22.633Z,101326.44
2023-01-29T07:38:24.514Z,101317.66
2023-01-29T07:41:26.642Z,101326.16
2023-01-29T07:44:28.508Z,101328.78
2023-01-29T07:47:30.382Z,101316.38
2023-01-29T07:50:33.046Z,101320.81
2023-01-29T07:53:35.854Z,101323.19
2023-01-29T07:56:37.873Z,101313.69
2023-01-29T07:59:39.773Z,101329.59
2023-01-29T08:02:41.893Z,101327.31
2023-01-29T08:05:44.371Z,101319.31
2023-01-29T08:08:46.182Z,101326.09
2023-01-29T08:11:48.176Z,101329.63
2023-01-29T08:14:50.357Z,101333.06
2023-01-29T08:17:57.822Z,101333.72
2023-01-29T08:21:01.229Z,101323.12
2023-01-29T08:24:03.268Z,101335.75
2023-01-29T08:27:05.275Z,101331.28
2023-01-29T08:30:07.515Z,101338.97
2023-01-29T08:33:09.458Z,101348.03
2023-01-29T08:36:11.402Z,101340.03
2023-01-29T08:39:13.356Z,101352.00
2023-01-29T08:42:15.292Z,101352.69
2023-01-29T08:45:17.304Z,101365.63
2023-01-29T08:48:19.201Z,101362.19
2023-01-29T08:51:21.841Z,101366.13
2023-01-29T08:54:24.305Z,101367.78
2023-01-29T08:57:26.211Z,101374.06
2023-01-29T09:00:28.166Z,101393.84
2023-01-29T09:03:30.200Z,101401.25
2023-01-29T09:06:32.069Z,101386.37
2023-01-29T09:09:33.980Z,101395.63
2023-01-29T09:12:35.958Z,101383.06
2023-01-29T09:15:37.888Z,101389.81
2023-01-29T09:18:39.740Z,101388.06
2023-01-29T09:21:41.809Z,101391.06
2023-01-29T09:24:43.690Z,101391.06
2023-01-29T09:27:45.685Z,101392.66
2023-01-29T09:30:47.737Z,101376.88
2023-01-29T09:33:49.747Z,101388.94
2023-01-29T09:36:52.164Z,101398.75
2023-01-29T09:39:54.028Z,101386.84
2023-01-29T09:42:58.383Z,101400.44
2023-01-29T09:46:08.167Z,101386.22
2023-01-29T09:49:26.727Z,101398.34
2023-01-29T09:52:39.189Z,101400.66
2023-01-29T09:55:46.677Z,101395.00
2023-01-29T09:58:48.688Z,101395.34
2023-01-29T10:01:55.814Z,101398.94
2023-01-29T10:05:10.225Z,101400.00
2023-01-29T10:08:30.971Z,101396.72
2023-01-29T10:11:36.210Z,101396.97
2023-01-29T10:14:41.025Z,101398.81
2023-01-29T10:17:45.724Z,101404.53
2023-01-29T10:20:50.136Z,101412.91
2023-01-29T10:23:53.890Z,101398.41
2023-01-29T10:26:55.814Z,101404.91
2023-01-29T10:29:57.696Z,101394.13
2023-01-29T10:33:01.756Z,101394.44
2023-01-29T10:36:04.595Z,101395.38
2023-01-29T10:39:09.788Z,101405.63
2023-01-29T10:42:25.754Z,101402.31
2023-01-29T10:45:33.849Z,101403.72
2023-01-29T10:48:45.088Z,101401.53
2023-01-29T10:52:16.242Z,101398.28
2023-01-29T10:55:30.235Z,101389.81
2023-01-29T10:58:49.999Z,101391.06
2023-01-29T11:01:52.075Z,101366.63
2023-01-29T11:04:54.197Z,101364.03
2023-01-29T11:08:01.225Z,101355.47
2023-01-29T11:11:11.806Z,101351.00
2023-01-29T11:14:15.303Z,101362.66
2023-01-29T11:17:21.282Z,101367.78
2023-01-29T11:20:27.230Z,101365.75
2023-01-29T11:23:33.422Z,101346.50
2023-01-29T11:26:36.258Z,101339.69
2023-01-29T11:29:38.337Z,101336.34
2023-01-29T11:32:40.481Z,101335.44
2023-01-29T11:35:42.318Z,101332.44
2023-01-29T11:38:44.444Z,101316.16
2023-01-29T11:41:51.071Z,101318.34
2023-01-29T11:44:53.188Z,101299.56
2023-01-29T11:47:55.518Z,101292.50
2023-01-29T11:50:58.116Z,101299.50
2023-01-29T11:54:00.892Z,101284.06
2023-01-29T11:57:02.793Z,101276.22
2023-01-29T12:00:13.731Z,101293.06
2023-01-29T12:03:35.839Z,101283.44
2023-01-29T12:06:38.213Z,101287.28
2023-01-29T12:09:40.273Z,101278.72
2023-01-29T12:12:42.400Z,101281.16
2023-01-29T12:15:44.325Z,101285.53
2023-01-29T12:18:51.300Z,101275.09
2023-01-29T12:21:58.438Z,101281.25
2023-01-29T12:25:26.575Z,101272.06
2023-01-29T12:28:34.533Z,101276.00
2023-01-29T12:31:44.484Z,101272.53
2023-01-29T12:34:55.461Z,101270.78
2023-01-29T12:38:00.820Z,101273.47
2023-01-29T12:41:06.965Z,101276.03
2023-01-29T12:44:13.859Z,101279.41
2023-01-29T12:47:35.915Z,101277.03
2023-01-29T12:50:38.185Z,101273.25
2023-01-29T12:54:00.183Z,101247.63
2023-01-29T12:57:03.016Z,101267.34
2023-01-29T13:00:19.260Z,101257.88
2023-01-29T13:03:24.541Z,101249.47
2023-01-29T13:06:28.130Z,101246.87
2023-01-29T13:09:30.726Z,101233.87
2023-01-29T13:12:32.637Z,101242.25
2023-01-29T13:15:38.925Z,101233.78
2023-01-29T13:18:41.251Z,101232.69
2023-01-29T13:21:44.011Z,101217.34
2023-01-29T13:24:55.455Z,101209.13
2023-01-29T13:28:05.454Z,101204.47
2023-01-29T13:31:10.486Z,101199.94
2023-01-29T13:34:16.585Z,101200.78
2023-01-29T13:37:24.675Z,101183.06
2023-01-29T13:40:30.017Z,101171.12
2023-01-29T13:43:35.142Z,101191.69
2023-01-29T13:46:39.710Z,101195.84
2023-01-29T13:49:52.722Z,101196.06
2023-01-29T13:52:55.446Z,101203.16
2023-01-29T13:56:03.925Z,101206.75
2023-01-29T13:59:05.895Z,101207.78
2023-01-29T14:02:21.147Z,101193.16
2023-01-29T14:05:33.833Z,101199.50
2023-01-29T14:08:36.094Z,101205.75
2023-01-29T14:11:38.074Z,101217.19
2023-01-29T14:14:49.141Z,101221.66
2023-01-29T14:18:05.821Z,101216.22
2023-01-29T14:21:30.567Z,101228.59
2023-01-29T14:24:32.679Z,101244.81
2023-01-29T14:27:34.553Z,101243.63
2023-01-29T14:30:36.725Z,101245.28
2023-01-29T14:33:39.848Z,101244.69
2023-01-29T14:36:43.626Z,101246.25
2023-01-29T14:39:47.160Z,101245.66
2023-01-29T14:43:07.726Z,101242.75
2023-01-29T14:46:28.295Z,101246.50
2023-01-29T14:49:48.871Z,101243.06
2023-01-29T14:52:50.810Z,101240.94
2023-01-29T14:56:00.124Z,101233.28
2023-01-29T14:59:34.547Z,101253.22
2023-01-29T15:02:43.678Z,101244.75
2023-01-29T15:05:45.626Z,101245.97
2023-01-29T15:08:49.787Z,101236.06
2023-01-29T15:12:10.545Z,101252.09
2023-01-29T15:15:27.344Z,101247.47
2023-01-29T15:18:37.355Z,101242.75
2023-01-29T15:21:39.282Z,101240.94
2023-01-29T15:24:41.931Z,101230.72
2023-01-29T15:27:44.234Z,101231.06
2023-01-29T15:30:46.110Z,101220.81
2023-01-29T15:33:48.404Z,101223.28
2023-01-29T15:36:50.392Z,101228.69
2023-01-29T15:39:53.157Z,101221.06
2023-01-29T15:42:55.376Z,101232.91
2023-01-29T15:45:58.216Z,101232.63
2023-01-29T15:49:00.880Z,101231.41
2023-01-29T15:52:06.654Z,101235.81
2023-01-29T15:55:19.934Z,101243.06
2023-01-29T15:58:23.618Z,101237.37
2023-01-29T16:01:28.975Z,101237.44
2023-01-29T16:04:31.508Z,101242.25
2023-01-29T16:07:33.961Z,101241.47
2023-01-29T16:10:35.961Z,101243.56
2023-01-29T16:13:40.041Z,101247.88
2023-01-29T16:16:45.184Z,101243.44
2023-01-29T16:19:55.075Z,101243.00
2023-01-29T16:22:57.145Z,101254.00
2023-01-29T16:26:02.316Z,101258.16
2023-01-29T16:29:08.318Z,101258.19
2023-01-29T16:32:12.367Z,101260.28
2023-01-29T16:35:15.116Z,101258.91
2023-01-29T16:38:25.335Z,101267.22
2023-01-29T16:41:31.496Z,101277.06
2023-01-29T16:44:36.702Z,101273.16
2023-01-29T16:47:39.330Z,101277.34
2023-01-29T16:50:54.309Z,101274.09
2023-01-29T16:54:00.892Z,101277.91
2023-01-29T16:57:03.468Z,101289.88
2023-01-29T17:00:07.649Z,101284.63
2023-01-29T17:03:10.368Z,101282.34
2023-01-29T17:06:13.125Z,101286.66
2023-01-29T17:09:22.601Z,101282.19
2023-01-29T17:12:25.155Z,101279.41
2023-01-29T17:15:29.215Z,101281.37
2023-01-29T17:18:31.218Z,101276.09
2023-01-29T17:21:33.119Z,101283.78
2023-01-29T17:24:35.132Z,101270.75
2023-01-29T17:27:36.996Z,101272.66
2023-01-29T17:30:39.191Z,101270.53
2023-01-29T17:33:42.032Z,101274.88
2023-01-29T17:36:44.053Z,101256.44
2023-01-29T17:39:47.376Z,101254.50
2023-01-29T17:42:49.191Z,101244.31
2023-01-29T17:45:51.141Z,101245.28
2023-01-29T17:48:53.075Z,101238.78
2023-01-29T17:51:55.713Z,101242.31
2023-01-29T17:54:57.606Z,101233.09
2023-01-29T17:57:59.516Z,101236.06
2023-01-29T18:01:01.371Z,101222.75
2023-01-29T18:04:03.343Z,101231.25
2023-01-29T18:07:05.371Z,101219.59
2023-01-29T18:10:07.778Z,101226.69
2023-01-29T18:13:09.709Z,101235.69
2023-01-29T18:16:11.659Z,101230.59
2023-01-29T18:19:19.138Z,101225.34
2023-01-29T18:22:21.277Z,101230.69
2023-01-29T18:25:24.888Z,101224.50
2023-01-29T18:28:27.694Z,101218.34
2023-01-29T18:31:30.151Z,101221.88
2023-01-29T18:34:32.135Z,101209.19
2023-01-29T18:37:34.043Z,101213.78
2023-01-29T18:40:36.047Z,101216.44
2023-01-29T18:43:38.360Z,101215.50
2023-01-29T18:46:40.476Z,101220.91
2023-01-29T18:49:42.483Z,101209.28
2023-01-29T18:52:44.570Z,101212.47
2023-01-29T18:55:54.131Z,101206.34
2023-01-29T18:58:56.163Z,101217.09
2023-01-29T19:01:58.163Z,101220.41
2023-01-29T19:05:00.135Z,101216.69
2023-01-29T19:08:02.131Z,101214.31
2023-01-29T19:11:08.131Z,101224.78
2023-01-29T19:14:10.088Z,101223.94
2023-01-29T19:17:12.048Z,101217.97
2023-01-29T19:20:14.063Z,101224.16
2023-01-29T19:23:15.984Z,101200.91
2023-01-29T19:26:17.952Z,101214.44
2023-01-29T19:29:20.235Z,101211.25
2023-01-29T19:32:22.770Z,101206.34
2023-01-29T19:35:24.802Z,101210.44
2023-01-29T19:38:26.944Z,101220.78
2023-01-29T19:41:28.936Z,101196.56
2023-01-29T19:44:30.868Z,101193.75
2023-01-29T19:47:33.811Z,101189.25
2023-01-29T19:50:35.846Z,101189.53
2023-01-29T19:53:38.228Z,101189.59
2023-01-29T19:56:40.283Z,101195.59
2023-01-29T19:59:45.661Z,101187.72
2023-01-29T20:02:47.952Z,101189.97
2023-01-29T20:05:49.850Z,101200.59
2023-01-29T20:08:51.943Z,101200.59
2023-01-29T20:11:53.790Z,101187.03
2023-01-29T20:14:55.606Z,101184.84
2023-01-29T20:17:58.863Z,101200.84
2023-01-29T20:21:05.302Z,101194.88
2023-01-29T20:24:07.675Z,101181.97
2023-01-29T20:27:10.263Z,101172.63
2023-01-29T20:30:12.351Z,101174.69
2023-01-29T20:33:14.270Z,101179.25
2023-01-29T20:36:16.132Z,101169.56
2023-01-29T20:39:18.231Z,101164.53
2023-01-29T20:42:20.088Z,101166.81
2023-01-29T20:45:22.330Z,101169.13
2023-01-29T20:48:24.744Z,101169.19
2023-01-29T20:51:26.623Z,101163.88
2023-01-29T20:54:30.101Z,101174.47
2023-01-29T20:57:32.229Z,101183.72
2023-01-29T21:00:34.291Z,101181.09
2023-01-29T21:03:36.206Z,101178.12
2023-01-29T21:06:38.127Z,101171.09
2023-01-29T21:09:40.047Z,101184.84
2023-01-29T21:12:42.045Z,101186.09
2023-01-29T21:15:44.567Z,101192.34
2023-01-29T21:18:46.456Z,101185.28
2023-01-29T21:21:48.375Z,101197.22
2023-01-29T21:24:50.371Z,101203.37
2023-01-29T21:27:52.242Z,101202.81
2023-01-29T21:31:02.241Z,101210.41
2023-01-29T21:34:07.128Z,101208.75
2023-01-29T21:37:09.695Z,101203.47
2023-01-29T21:40:11.776Z,101197.78
2023-01-29T21:43:15.424Z,101200.53
2023-01-29T21:46:17.540Z,101199.81
2023-01-29T21:49:19.523Z,101207.59
2023-01-29T21:52:21.785Z,101195.75
2023-01-29T21:55:23.851Z,101191.34
2023-01-29T21:58:25.770Z,101184.81
2023-01-29T22:01:38.198Z,101189.28
2023-01-29T22:04:40.676Z,101185.44
2023-01-29T22:07:42.729Z,101187.31
2023-01-29T22:10:44.781Z,101177.00
2023-01-29T22:13:47.314Z,101179.53
2023-01-29T22:16:49.285Z,101168.81
2023-01-29T22:19:51.359Z,101154.19
2023-01-29T22:22:53.265Z,101157.03
2023-01-29T22:25:55.432Z,101151.03
2023-01-29T22:28:57.303Z,101150.31
2023-01-29T22:31:59.673Z,101142.53
2023-01-29T22:35:01.677Z,101149.47
2023-01-29T22:38:03.845Z,101144.72
2023-01-29T22:41:05.925Z,101132.56
2023-01-29T22:44:08.806Z,101132.97
2023-01-29T22:47:10.756Z,101130.69
2023-01-29T22:50:12.854Z,101125.31
2023-01-29T22:53:14.955Z,101120.41
2023-01-29T22:56:17.412Z,101117.22
2023-01-29T22:59:19.464Z,101116.16
2023-01-29T23:02:21.336Z,101109.88
2023-01-29T23:05:23.199Z,101114.13
2023-01-29T23:08:25.037Z,101097.66
2023-01-29T23:11:27.230Z,101112.56
2023-01-29T23:14:29.044Z,101110.47
2023-01-29T23:17:31.040Z,101104.09
2023-01-29T23:20:32.998Z,101093.53
2023-01-29T23:23:35.431Z,101102.31
2023-01-29T23:26:56.223Z,101099.13
2023-01-29T23:29:58.140Z,101093.56
2023-01-29T23:32:59.989Z,101091.28
2023-01-29T23:36:02.093Z,101089.34
2023-01-29T23:39:04.200Z,101077.84
2023-01-29T23:42:06.121Z,101088.25
2023-01-29T23:45:08.286Z,101079.47
2023-01-29T23:48:10.241Z,101070.22
2023-01-29T23:51:12.270Z,101065.94
2023-01-29T23:54:14.231Z,101070.47
2023-01-29T23:57:16.162Z,101068.75
